Time;durP1;ratioP1;P1;durP2;ratioP2;P2;SDS_P1;SDS_P2;PMS_P1;PMS_P2;Temp;Humidity;BMP_temperature;BMP_pressure;BME280_temperature;BME280_humidity;BME280_pressure;Samples;Min_cycle;Max_cycle;Signal;HPM_P1;HPM_P2
2021/09/12 12:45:34;;;;;;;;;458.00;428.40;;;;;;;;2790998;51;55550;-55
2021/09/12 12:49:42;;;;;;;;;344.25;323.75;;;;;;;;2801062;51;13425;-54
2021/09/12 13:08:20;;;;;;;;;74.80;58.00;;;;;;;;2801145;51;13381;-51
2021/09/12 13:23:02;;;;;;;;;61.25;46.50;;;;;;;;2800004;50;13406;-56
2021/09/12 13:25:28;;;;;;;;;49.25;36.00;;;;;;;;2789021;51;10108;-57
2021/09/12 13:27:54;;;;;;;;;63.33;48.67;;;;;;;;2784521;51;54972;-56
2021/09/12 13:30:20;;;;;;;;;66.75;51.75;;;;;;;;2790638;51;8763;-55
2021/09/12 13:32:46;;;;;;;;;56.67;45.00;;;;;;;;2790264;51;8772;-56
2021/09/12 13:35:12;;;;;;;;;54.50;42.50;;;;;;;;2790330;51;11476;-55
2021/09/12 13:37:37;;;;;;;;;51.33;41.00;;;;;;;;2789924;51;8806;-57
2021/09/12 13:40:03;;;;;;;;;45.33;36.67;;;;;;;;2790465;51;8767;-56
2021/09/12 13:42:28;;;;;;;;;40.33;33.33;;;;;;;;2790048;51;8820;-57
2021/09/12 13:44:55;;;;;;;;;38.00;31.33;;;;;;;;2790461;51;8760;-58
2021/09/12 13:47:21;;;;;;;;;35.00;28.00;;;;;;;;2790135;51;8910;-56
2021/09/12 13:49:46;;;;;;;;;32.33;24.33;;;;;;;;2790407;51;8764;-57
2021/09/12 13:52:11;;;;;;;;;28.25;24.00;;;;;;;;2789829;51;8805;-57
2021/09/12 13:54:37;;;;;;;;;22.25;19.50;;;;;;;;2790599;51;8869;-56
2021/09/12 13:57:02;;;;;;;;;20.00;16.25;;;;;;;;2790379;51;8779;-55
2021/09/12 13:59:27;;;;;;;;;21.00;19.25;;;;;;;;2789824;51;8881;-56
2021/09/12 14:01:53;;;;;;;;;23.75;22.00;;;;;;;;2790168;51;8803;-56
2021/09/12 14:04:18;;;;;;;;;21.25;19.25;;;;;;;;2789746;51;8795;-57
2021/09/12 14:06:43;;;;;;;;;21.25;18.75;;;;;;;;2790409;51;8816;-55
2021/09/12 14:09:09;;;;;;;;;18.00;16.00;;;;;;;;2790633;51;8764;-56
2021/09/12 14:11:34;;;;;;;;;16.00;12.75;;;;;;;;2789855;51;9483;-56
2021/09/12 14:13:59;;;;;;;;;18.25;16.00;;;;;;;;2789981;51;8779;-56
2021/09/12 14:16:24;;;;;;;;;16.00;14.25;;;;;;;;2790029;51;9420;-58
2021/09/12 14:18:50;;;;;;;;;11.50;10.25;;;;;;;;2790358;51;8784;-56
2021/09/12 14:21:17;;;;;;;;;14.00;12.50;;;;;;;;2789492;51;8792;-58
2021/09/12 14:23:42;;;;;;;;;12.60;10.40;;;;;;;;2789752;51;8791;-56
2021/09/12 14:26:07;;;;;;;;;12.00;11.50;;;;;;;;2789780;51;8898;-57
2021/09/12 14:28:33;;;;;;;;;17.00;13.00;;;;;;;;2790280;51;8776;-56
2021/09/12 14:30:58;;;;;;;;;11.25;9.50;;;;;;;;2789776;51;9483;-56
2021/09/12 14:33:23;;;;;;;;;11.50;9.25;;;;;;;;2787805;51;8780;-56
2021/09/12 14:35:49;;;;;;;;;16.00;12.00;;;;;;;;2786130;51;8779;-56
2021/09/12 14:38:14;;;;;;;;;20.50;17.25;;;;;;;;2784771;51;8780;-56
2021/09/12 14:40:39;;;;;;;;;23.25;19.25;;;;;;;;2782808;51;9374;-56
2021/09/12 14:43:05;;;;;;;;;30.75;28.00;;;;;;;;2778376;51;10085;-56
2021/09/12 14:48:14;;;;;;;;;11.00;9.60;;;;;;;;2801667;50;13399;-61
2021/09/12 14:52:55;;;;;;;;;5.80;3.80;;;;;;;;2792877;51;52548;-62
2021/09/12 14:55:20;;;;;;;;;3.25;3.00;;;;;;;;2789404;51;10314;-61
2021/09/12 14:57:46;;;;;;;;;3.00;3.00;;;;;;;;2789871;51;8868;-60
2021/09/12 15:00:13;;;;;;;;;4.00;4.00;;;;;;;;2789956;51;8854;-60
2021/09/12 15:02:39;;;;;;;;;3.40;3.40;;;;;;;;2789395;51;10171;-62
2021/09/12 15:05:06;;;;;;;;;2.80;2.00;;;;;;;;2789927;51;8920;-61
2021/09/12 15:07:32;;;;;;;;;2.80;2.80;;;;;;;;2787383;51;10142;-61
2021/09/12 15:09:57;;;;;;;;;4.00;4.00;;;;;;;;2789230;51;10105;-62
2021/09/12 15:12:23;;;;;;;;;4.00;2.75;;;;;;;;2789096;51;10905;-59
2021/09/12 15:14:49;;;;;;;;;2.00;1.25;;;;;;;;2787051;51;8766;-61
2021/09/12 15:17:14;;;;;;;;;2.75;2.75;;;;;;;;2783643;51;8767;-60
2021/09/12 15:19:40;;;;;;;;;2.00;2.00;;;;;;;;2783763;51;10148;-62
2021/09/12 15:22:05;;;;;;;;;2.75;1.50;;;;;;;;2783942;51;8859;-61
2021/09/12 15:24:31;;;;;;;;;4.25;3.25;;;;;;;;2783666;51;8810;-60
2021/09/12 15:26:57;;;;;;;;;3.00;3.00;;;;;;;;2783678;51;9474;-60
2021/09/12 15:29:22;;;;;;;;;4.25;3.00;;;;;;;;2783628;51;8770;-62
2021/09/12 15:31:48;;;;;;;;;5.75;3.25;;;;;;;;2783638;51;8818;-60
2021/09/12 15:34:15;;;;;;;;;2.00;2.00;;;;;;;;2783781;51;8766;-61
2021/09/12 15:36:41;;;;;;;;;3.00;3.00;;;;;;;;2783950;51;9633;-63
2021/09/12 15:39:07;;;;;;;;;3.00;3.00;;;;;;;;2783817;51;8758;-61
2021/09/12 15:41:33;;;;;;;;;5.00;4.25;;;;;;;;2784126;51;8775;-60
2021/09/12 15:43:58;;;;;;;;;2.50;2.00;;;;;;;;2782176;51;10635;-62
2021/09/12 15:46:24;;;;;;;;;4.00;2.00;;;;;;;;2790277;51;8773;-60
2021/09/12 15:48:50;;;;;;;;;3.00;3.00;;;;;;;;2792460;51;8877;-60
2021/09/12 15:51:17;;;;;;;;;4.00;2.00;;;;;;;;2796338;51;9447;-60
2021/09/12 15:53:42;;;;;;;;;3.20;2.80;;;;;;;;2796179;51;11397;-63
2021/09/12 15:56:08;;;;;;;;;6.00;6.00;;;;;;;;2795872;51;8763;-64
2021/09/12 15:58:33;;;;;;;;;5.00;3.25;;;;;;;;2796386;51;8751;-62
2021/09/12 16:00:59;;;;;;;;;7.25;5.00;;;;;;;;2795918;51;8862;-61
2021/09/12 16:03:44;;;;;;;;;3.60;2.60;;;;;;;;2793022;51;8739;-61
2021/09/12 16:06:27;;;;;;;;;5.00;3.60;;;;;;;;2791879;51;8771;-65
2021/09/12 16:09:11;;;;;;;;;200.00;123.00;;;;;;;;2791919;51;8747;-69
2021/09/12 16:11:55;;;;;;;;;67.40;47.60;;;;;;;;2792000;51;8791;-72
2021/09/12 16:14:39;;;;;;;;;288.25;178.75;;;;;;;;2791903;51;8748;-72
2021/09/12 16:17:23;;;;;;;;;650.50;377.00;;;;;;;;2791856;51;9264;-63
2021/09/12 16:20:08;;;;;;;;;522.33;323.00;;;;;;;;2790595;51;11506;-67
2021/09/12 16:22:40;;;;;;;;;223.33;158.33;;;;;;;;2800862;50;13434;-82
2021/09/12 16:25:24;;;;;;;;;77.20;53.40;;;;;;;;2802715;50;13465;-80
2021/09/12 16:27:49;;;;;;;;;69.67;48.00;;;;;;;;2789144;51;9944;-81
2021/09/12 16:30:15;;;;;;;;;60.67;43.33;;;;;;;;2790238;51;8806;-80
2021/09/12 16:32:40;;;;;;;;;50.33;35.33;;;;;;;;2790329;51;9540;-77
2021/09/12 16:35:06;;;;;;;;;46.67;37.00;;;;;;;;2791024;51;10161;-75
2021/09/12 16:37:31;;;;;;;;;44.00;28.67;;;;;;;;2790900;51;8857;-76
2021/09/12 16:39:56;;;;;;;;;36.67;27.00;;;;;;;;2789570;51;9942;-77
2021/09/12 16:42:22;;;;;;;;;18.50;16.00;;;;;;;;2791564;51;9840;-80
2021/09/12 16:44:48;;;;;;;;;20.00;12.50;;;;;;;;2789709;51;9852;-86
2021/09/12 16:47:21;;;;;;;;;17.60;12.00;;;;;;;;2790130;51;10019;-78
2021/09/12 16:49:46;;;;;;;;;13.80;10.20;;;;;;;;2789395;51;10278;-79
2021/09/12 16:52:12;;;;;;;;;13.25;8.50;;;;;;;;2788377;51;10863;-87
2021/09/12 16:54:55;;;;;;;;;6.40;6.40;;;;;;;;2792406;50;122004;-80
2021/09/12 16:57:20;;;;;;;;;6.75;5.00;;;;;;;;2794005;51;9899;-71
2021/09/12 16:59:46;;;;;;;;;9.50;6.25;;;;;;;;2790161;51;8777;-70
2021/09/12 17:02:12;;;;;;;;;6.00;5.00;;;;;;;;2789624;51;8785;-70
2021/09/12 17:04:37;;;;;;;;;4.75;3.00;;;;;;;;2790048;51;9366;-67
2021/09/12 17:07:03;;;;;;;;;8.00;4.75;;;;;;;;2789916;51;8781;-69
2021/09/12 17:09:29;;;;;;;;;6.40;5.60;;;;;;;;2789981;51;8757;-70
2021/09/12 17:11:55;;;;;;;;;3.25;2.75;;;;;;;;2790114;51;9401;-68
2021/09/12 17:14:20;;;;;;;;;5.25;4.00;;;;;;;;2789815;51;8778;-70
2021/09/12 17:16:46;;;;;;;;;3.25;3.00;;;;;;;;2789757;51;12145;-72
2021/09/12 17:19:12;;;;;;;;;4.25;3.75;;;;;;;;2789855;51;8785;-73
2021/09/12 17:21:37;;;;;;;;;3.25;3.25;;;;;;;;2792122;51;64050;-76
2021/09/12 17:24:03;;;;;;;;;5.25;3.25;;;;;;;;2795904;51;11412;-75
2021/09/12 17:26:29;;;;;;;;;5.00;4.00;;;;;;;;2795987;51;8810;-84
2021/09/12 17:28:55;;;;;;;;;3.00;3.00;;;;;;;;2795989;51;8765;-73
2021/09/12 17:31:20;;;;;;;;;4.75;3.00;;;;;;;;2795978;51;8855;-78
2021/09/12 17:33:46;;;;;;;;;3.50;3.00;;;;;;;;2795396;51;8777;-72
2021/09/12 17:36:12;;;;;;;;;3.75;3.75;;;;;;;;2795934;51;11521;-70
2021/09/12 17:38:37;;;;;;;;;4.75;4.00;;;;;;;;2796204;51;8887;-72
2021/09/12 17:41:04;;;;;;;;;4.00;4.00;;;;;;;;2795823;51;8954;-72
2021/09/12 17:43:29;;;;;;;;;2.80;1.80;;;;;;;;2795720;51;8784;-70
2021/09/12 17:45:55;;;;;;;;;5.75;5.25;;;;;;;;2795981;51;8753;-69
2021/09/12 17:48:21;;;;;;;;;6.00;5.00;;;;;;;;2794975;51;8775;-72
2021/09/12 17:50:46;;;;;;;;;6.75;4.50;;;;;;;;2789766;51;8783;-70
2021/09/12 17:53:12;;;;;;;;;5.75;5.75;;;;;;;;2789926;51;8820;-73
2021/09/12 17:55:38;;;;;;;;;4.00;4.00;;;;;;;;2790248;51;8768;-75
2021/09/12 17:58:03;;;;;;;;;4.50;3.75;;;;;;;;2789344;51;8768;-73
2021/09/12 18:00:29;;;;;;;;;7.50;5.75;;;;;;;;2789916;51;8779;-73
2021/09/12 18:02:55;;;;;;;;;4.75;4.50;;;;;;;;2789363;51;8895;-73
2021/09/12 18:05:20;;;;;;;;;4.00;2.75;;;;;;;;2787183;51;11416;-72
2021/09/12 18:07:46;;;;;;;;;3.50;2.75;;;;;;;;2785641;51;8760;-70
2021/09/12 18:10:12;;;;;;;;;3.50;3.50;;;;;;;;2785006;51;9772;-72
2021/09/12 18:12:37;;;;;;;;;3.00;3.00;;;;;;;;2785548;51;8882;-71
2021/09/12 18:15:04;;;;;;;;;6.00;5.00;;;;;;;;2785555;51;8848;-73
2021/09/12 18:17:30;;;;;;;;;4.00;4.00;;;;;;;;2785591;51;8764;-73
2021/09/12 18:19:55;;;;;;;;;4.00;4.00;;;;;;;;2786049;51;9451;-72
2021/09/12 18:22:21;;;;;;;;;4.25;4.00;;;;;;;;2786331;51;9413;-73
2021/09/12 18:24:47;;;;;;;;;3.25;3.25;;;;;;;;2785886;51;8796;-72
2021/09/12 18:27:12;;;;;;;;;2.60;2.60;;;;;;;;2785824;51;8760;-72
2021/09/12 18:29:38;;;;;;;;;6.00;4.50;;;;;;;;2785554;51;8791;-71
2021/09/12 18:32:04;;;;;;;;;2.75;2.50;;;;;;;;2785806;51;8775;-72
2021/09/12 18:34:29;;;;;;;;;3.50;3.50;;;;;;;;2785523;51;8803;-73
2021/09/12 18:36:56;;;;;;;;;3.00;3.00;;;;;;;;2785255;51;8886;-73
2021/09/12 18:39:22;;;;;;;;;4.40;3.40;;;;;;;;2785674;51;8764;-73
2021/09/12 18:41:48;;;;;;;;;5.00;4.00;;;;;;;;2785680;51;8764;-71
2021/09/12 18:44:13;;;;;;;;;3.00;3.00;;;;;;;;2785410;51;11418;-71
2021/09/12 18:46:40;;;;;;;;;4.00;3.00;;;;;;;;2786067;51;8798;-73
2021/09/12 18:49:06;;;;;;;;;6.20;4.00;;;;;;;;2785444;51;8755;-68
2021/09/12 18:51:31;;;;;;;;;4.75;4.75;;;;;;;;2786234;51;8776;-70
2021/09/12 18:53:57;;;;;;;;;4.00;3.25;;;;;;;;2785613;51;8793;-75
2021/09/12 18:56:25;;;;;;;;;4.75;3.00;;;;;;;;2785774;51;8768;-72
2021/09/12 18:58:51;;;;;;;;;2.00;2.00;;;;;;;;2785627;51;8772;-72
2021/09/12 19:01:17;;;;;;;;;4.00;3.00;;;;;;;;2785711;51;8764;-73
2021/09/12 19:03:42;;;;;;;;;2.50;2.00;;;;;;;;2785531;51;9674;-69
2021/09/12 19:06:08;;;;;;;;;3.25;3.00;;;;;;;;2785543;51;8776;-72
2021/09/12 19:08:34;;;;;;;;;4.00;4.00;;;;;;;;2785617;51;8772;-72
2021/09/12 19:10:59;;;;;;;;;3.25;2.25;;;;;;;;2785605;51;8783;-73
2021/09/12 19:13:25;;;;;;;;;0.00;0.00;;;;;;;;2785847;51;10326;-83
2021/09/12 19:15:54;;;;;;;;;2.60;2.60;;;;;;;;2784706;51;8752;-75
2021/09/12 19:18:21;;;;;;;;;3.50;2.75;;;;;;;;2785333;51;8772;-72
2021/09/12 19:20:46;;;;;;;;;3.40;2.80;;;;;;;;2779044;51;9781;-73
2021/09/12 19:23:12;;;;;;;;;2.00;2.00;;;;;;;;2779739;51;9493;-71
2021/09/12 19:25:38;;;;;;;;;4.25;4.25;;;;;;;;2779758;51;9554;-71
2021/09/12 19:28:03;;;;;;;;;3.75;3.75;;;;;;;;2779575;51;8770;-71
2021/09/12 19:30:29;;;;;;;;;1.75;1.75;;;;;;;;2779335;51;8774;-70
2021/09/12 19:32:55;;;;;;;;;3.00;3.00;;;;;;;;2778940;51;8774;-70
2021/09/12 19:35:21;;;;;;;;;3.50;2.25;;;;;;;;2779346;51;9370;-69
2021/09/12 19:37:47;;;;;;;;;4.40;3.20;;;;;;;;2779508;51;8762;-74
2021/09/12 19:40:13;;;;;;;;;4.40;2.60;;;;;;;;2779125;51;8870;-68
2021/09/12 19:42:39;;;;;;;;;5.60;2.80;;;;;;;;2779392;51;8767;-69
2021/09/12 19:45:05;;;;;;;;;2.00;1.00;;;;;;;;2779798;51;8763;-69
2021/09/12 19:47:31;;;;;;;;;2.40;2.40;;;;;;;;2779463;51;8863;-69
2021/09/12 19:49:58;;;;;;;;;1.25;1.25;;;;;;;;2784425;51;8760;-70
2021/09/12 19:52:24;;;;;;;;;5.20;3.00;;;;;;;;2785476;51;8760;-69
2021/09/12 19:54:49;;;;;;;;;3.25;3.00;;;;;;;;2785384;51;9550;-69
2021/09/12 19:57:15;;;;;;;;;5.50;4.00;;;;;;;;2785271;51;8768;-70
2021/09/12 19:59:41;;;;;;;;;3.00;3.00;;;;;;;;2785482;51;8794;-71
2021/09/12 20:02:07;;;;;;;;;2.75;2.75;;;;;;;;2785258;51;8782;-71
2021/09/12 20:04:33;;;;;;;;;5.00;3.00;;;;;;;;2785496;51;9395;-73
2021/09/12 20:06:58;;;;;;;;;3.75;3.50;;;;;;;;2785287;51;8768;-71
2021/09/12 20:09:24;;;;;;;;;1.50;1.50;;;;;;;;2785755;51;8771;-71
2021/09/12 20:11:49;;;;;;;;;2.00;2.00;;;;;;;;2785292;51;8785;-70
2021/09/12 20:14:15;;;;;;;;;3.25;3.25;;;;;;;;2782600;51;9855;-69
2021/09/12 20:16:41;;;;;;;;;2.00;2.00;;;;;;;;2779356;51;8776;-77
2021/09/12 20:19:06;;;;;;;;;2.25;2.25;;;;;;;;2778165;51;11851;-71
2021/09/12 20:21:32;;;;;;;;;2.25;2.25;;;;;;;;2778387;51;11502;-70
2021/09/12 20:23:58;;;;;;;;;3.00;3.00;;;;;;;;2777806;51;10053;-74
2021/09/12 20:26:24;;;;;;;;;4.40;3.00;;;;;;;;2778513;51;9662;-72
2021/09/12 20:28:50;;;;;;;;;2.00;1.50;;;;;;;;2779296;51;8784;-70
2021/09/12 20:31:16;;;;;;;;;3.20;2.00;;;;;;;;2779221;51;8768;-69
2021/09/12 20:33:42;;;;;;;;;4.60;3.00;;;;;;;;2778870;51;8791;-69
2021/09/12 20:36:07;;;;;;;;;4.75;4.00;;;;;;;;2779302;51;8776;-72
2021/09/12 20:38:33;;;;;;;;;5.25;2.25;;;;;;;;2779129;51;8776;-69
2021/09/12 20:40:59;;;;;;;;;1.00;1.00;;;;;;;;2779060;51;8772;-69
2021/09/12 20:43:25;;;;;;;;;5.00;3.25;;;;;;;;2779215;51;9609;-72
2021/09/12 20:45:51;;;;;;;;;2.50;2.00;;;;;;;;2779130;51;8772;-71
2021/09/12 20:48:17;;;;;;;;;3.20;3.20;;;;;;;;2778157;51;8783;-70
2021/09/12 20:50:43;;;;;;;;;3.00;3.00;;;;;;;;2776632;51;9836;-70
2021/09/12 20:53:09;;;;;;;;;4.00;3.00;;;;;;;;2778843;51;8904;-69
2021/09/12 20:55:35;;;;;;;;;4.60;3.40;;;;;;;;2779021;51;8762;-70
2021/09/12 20:58:00;;;;;;;;;2.50;1.75;;;;;;;;2779277;51;8767;-69
2021/09/12 21:00:26;;;;;;;;;6.75;4.00;;;;;;;;2778933;51;12180;-70
2021/09/12 21:02:51;;;;;;;;;2.00;2.00;;;;;;;;2779018;51;8770;-69
2021/09/12 21:05:17;;;;;;;;;2.75;2.75;;;;;;;;2778858;51;8758;-70
2021/09/12 21:07:43;;;;;;;;;4.50;3.50;;;;;;;;2779246;51;8750;-70
2021/09/12 21:10:13;;;;;;;;;5.00;4.00;;;;;;;;2779295;51;8762;-69
2021/09/12 21:12:39;;;;;;;;;3.00;3.00;;;;;;;;2779324;51;8782;-70
2021/09/12 21:15:06;;;;;;;;;3.60;2.40;;;;;;;;2778847;51;8766;-70
2021/09/12 21:17:32;;;;;;;;;2.60;2.60;;;;;;;;2778550;51;9594;-74
2021/09/12 21:19:57;;;;;;;;;2.60;1.20;;;;;;;;2778907;51;9510;-71
2021/09/12 21:22:23;;;;;;;;;2.25;2.00;;;;;;;;2782090;51;8767;-75
2021/09/12 21:24:49;;;;;;;;;2.75;1.00;;;;;;;;2785346;51;8852;-75
2021/09/12 21:27:14;;;;;;;;;2.25;2.25;;;;;;;;2785488;51;8776;-74
2021/09/12 21:29:40;;;;;;;;;3.00;3.00;;;;;;;;2788050;51;8779;-75
2021/09/12 21:32:06;;;;;;;;;3.00;2.00;;;;;;;;2787062;51;8756;-71
2021/09/12 21:34:32;;;;;;;;;2.80;2.80;;;;;;;;2787876;51;8876;-73
2021/09/12 21:36:58;;;;;;;;;3.75;2.00;;;;;;;;2785013;51;8760;-71
2021/09/12 21:39:23;;;;;;;;;2.00;2.00;;;;;;;;2785537;51;9531;-70
2021/09/12 21:41:49;;;;;;;;;2.25;2.25;;;;;;;;2786217;51;8756;-69
2021/09/12 21:44:14;;;;;;;;;2.25;2.00;;;;;;;;2784482;51;8782;-70
2021/09/12 21:46:40;;;;;;;;;1.50;1.50;;;;;;;;2780354;51;8782;-69
2021/09/12 21:49:06;;;;;;;;;1.75;1.75;;;;;;;;2780111;51;8891;-70
2021/09/12 21:51:31;;;;;;;;;4.00;2.25;;;;;;;;2779957;51;9407;-67
2021/09/12 21:53:57;;;;;;;;;4.50;3.75;;;;;;;;2779757;51;8815;-69
2021/09/12 21:56:22;;;;;;;;;5.00;4.00;;;;;;;;2779639;51;8754;-64
2021/09/12 21:58:48;;;;;;;;;4.25;3.25;;;;;;;;2779585;51;8872;-67
2021/09/12 22:01:14;;;;;;;;;0.50;0.50;;;;;;;;2779669;51;8774;-67
2021/09/12 22:03:40;;;;;;;;;2.00;2.00;;;;;;;;2779587;51;8893;-67
2021/09/12 22:06:09;;;;;;;;;1.40;1.00;;;;;;;;2779907;51;8786;-64
2021/09/12 22:08:35;;;;;;;;;2.00;2.00;;;;;;;;2780067;51;8771;-66
2021/09/12 22:11:01;;;;;;;;;1.00;1.00;;;;;;;;2779746;51;8774;-64
2021/09/12 22:13:30;;;;;;;;;2.00;2.00;;;;;;;;2779916;51;9396;-66
2021/09/12 22:15:56;;;;;;;;;2.80;2.40;;;;;;;;2779763;51;8767;-69
2021/09/12 22:18:21;;;;;;;;;3.25;3.25;;;;;;;;2779744;51;9388;-68
2021/09/12 22:20:47;;;;;;;;;1.00;1.00;;;;;;;;2782314;51;8756;-69
2021/09/12 22:23:14;;;;;;;;;3.50;1.50;;;;;;;;2780841;51;11403;-66
2021/09/12 22:25:40;;;;;;;;;2.40;2.40;;;;;;;;2786344;51;8772;-65
2021/09/12 22:28:06;;;;;;;;;2.00;1.20;;;;;;;;2782692;51;8774;-66
2021/09/12 22:30:31;;;;;;;;;3.00;2.75;;;;;;;;2779937;51;8806;-66
2021/09/12 22:32:57;;;;;;;;;2.00;2.00;;;;;;;;2779856;51;8770;-67
2021/09/12 22:35:23;;;;;;;;;1.00;1.00;;;;;;;;2779842;51;8777;-67
2021/09/12 22:37:48;;;;;;;;;1.50;1.50;;;;;;;;2779467;51;8763;-66
2021/09/12 22:40:14;;;;;;;;;2.75;2.75;;;;;;;;2779703;51;8880;-65
2021/09/12 22:42:40;;;;;;;;;2.25;2.00;;;;;;;;2779810;51;8790;-66
2021/09/12 22:45:06;;;;;;;;;1.00;1.00;;;;;;;;2779554;51;8783;-67
2021/09/12 22:47:32;;;;;;;;;3.00;2.40;;;;;;;;2779768;51;8785;-64
2021/09/12 22:49:58;;;;;;;;;3.00;3.00;;;;;;;;2779614;51;8750;-64
2021/09/12 22:52:25;;;;;;;;;2.50;2.50;;;;;;;;2779537;51;8771;-65
2021/09/12 22:54:50;;;;;;;;;4.00;2.60;;;;;;;;2779290;51;9897;-65
2021/09/12 22:57:16;;;;;;;;;2.50;2.50;;;;;;;;2779424;51;8762;-66
2021/09/12 22:59:42;;;;;;;;;2.00;2.00;;;;;;;;2779939;51;9395;-67
2021/09/12 23:02:08;;;;;;;;;2.25;2.25;;;;;;;;2779563;51;12040;-65
2021/09/12 23:04:33;;;;;;;;;2.80;2.00;;;;;;;;2780115;51;8770;-66
2021/09/12 23:06:59;;;;;;;;;3.25;3.25;;;;;;;;2779734;51;8787;-65
2021/09/12 23:09:25;;;;;;;;;3.40;3.40;;;;;;;;2779324;51;8787;-64
2021/09/12 23:11:51;;;;;;;;;4.00;3.75;;;;;;;;2779426;51;8793;-65
2021/09/12 23:14:16;;;;;;;;;3.00;2.00;;;;;;;;2779309;51;8790;-65
2021/09/12 23:16:42;;;;;;;;;3.00;3.00;;;;;;;;2779415;51;8766;-64
2021/09/12 23:19:08;;;;;;;;;2.75;2.75;;;;;;;;2779516;51;8769;-67
2021/09/12 23:21:33;;;;;;;;;3.00;3.00;;;;;;;;2779440;51;11505;-66
2021/09/12 23:23:59;;;;;;;;;2.00;2.00;;;;;;;;2778980;51;8897;-66
2021/09/12 23:26:25;;;;;;;;;3.00;3.00;;;;;;;;2779711;51;8778;-65
2021/09/12 23:28:50;;;;;;;;;3.75;2.00;;;;;;;;2779671;51;8782;-66
2021/09/12 23:31:16;;;;;;;;;1.25;1.25;;;;;;;;2779350;51;8779;-66
2021/09/12 23:33:41;;;;;;;;;4.00;2.75;;;;;;;;2779262;51;8797;-66
2021/09/12 23:36:07;;;;;;;;;3.25;2.25;;;;;;;;2779314;51;9309;-65
2021/09/12 23:38:33;;;;;;;;;2.00;2.00;;;;;;;;2779187;51;8884;-65
2021/09/12 23:40:58;;;;;;;;;4.75;3.00;;;;;;;;2779258;51;8746;-65
2021/09/12 23:43:24;;;;;;;;;4.75;3.00;;;;;;;;2779640;51;8759;-66
2021/09/12 23:45:49;;;;;;;;;2.00;2.00;;;;;;;;2779338;51;8806;-66
2021/09/12 23:48:15;;;;;;;;;2.50;2.00;;;;;;;;2779287;51;8775;-66
2021/09/12 23:50:41;;;;;;;;;2.00;2.00;;;;;;;;2779223;51;8798;-65
2021/09/12 23:53:06;;;;;;;;;3.50;2.75;;;;;;;;2778993;51;8918;-65
2021/09/12 23:55:32;;;;;;;;;2.00;2.00;;;;;;;;2779857;51;8758;-64
2021/09/12 23:57:57;;;;;;;;;5.00;3.25;;;;;;;;2779333;51;8763;-65
